sensor_id;sensor_type;location;lat;lon;timestamp;P1;durP1;ratioP1;P2;durP2;ratioP2
41897;SDS011;27576;53.366;-1.498;2022-08-30T00:00:33;3.10;;;2.38;;
41897;SDS011;27576;53.366;-1.498;2022-08-30T00:03:18;5.05;;;2.22;;
41897;SDS011;27576;53.366;-1.498;2022-08-30T00:05:44;4.55;;;2.63;;
41897;SDS011;27576;53.366;-1.498;2022-08-30T00:08:10;3.17;;;2.17;;
41897;SDS011;27576;53.366;-1.498;2022-08-30T00:10:36;3.30;;;2.10;;
41897;SDS011;27576;53.366;-1.498;2022-08-30T00:13:03;3.13;;;2.05;;
41897;SDS011;27576;53.366;-1.498;2022-08-30T00:15:30;3.17;;;2.40;;
41897;SDS011;27576;53.366;-1.498;2022-08-30T00:17:57;3.35;;;2.17;;
41897;SDS011;27576;53.366;-1.498;2022-08-30T00:20:26;3.28;;;2.05;;
41897;SDS011;27576;53.366;-1.498;2022-08-30T00:22:54;2.58;;;2.08;;
41897;SDS011;27576;53.366;-1.498;2022-08-30T00:25:20;4.20;;;2.30;;
41897;SDS011;27576;53.366;-1.498;2022-08-30T00:27:46;3.15;;;2.20;;
41897;SDS011;27576;53.366;-1.498;2022-08-30T00:30:13;5.80;;;2.15;;
41897;SDS011;27576;53.366;-1.498;2022-08-30T00:32:39;2.15;;;1.88;;
41897;SDS011;27576;53.366;-1.498;2022-08-30T00:35:06;3.45;;;2.08;;
41897;SDS011;27576;53.366;-1.498;2022-08-30T00:37:33;3.38;;;2.20;;
41897;SDS011;27576;53.366;-1.498;2022-08-30T00:39:59;4.18;;;2.25;;
41897;SDS011;27576;53.366;-1.498;2022-08-30T00:42:24;3.97;;;2.08;;
41897;SDS011;27576;53.366;-1.498;2022-08-30T00:44:51;5.90;;;2.35;;
41897;SDS011;27576;53.366;-1.498;2022-08-30T00:47:17;3.55;;;2.33;;
41897;SDS011;27576;53.366;-1.498;2022-08-30T00:49:44;2.53;;;1.90;;
41897;SDS011;27576;53.366;-1.498;2022-08-30T00:52:12;2.90;;;1.90;;
41897;SDS011;27576;53.366;-1.498;2022-08-30T00:54:39;2.88;;;1.85;;
41897;SDS011;27576;53.366;-1.498;2022-08-30T00:57:09;3.10;;;2.00;;
41897;SDS011;27576;53.366;-1.498;2022-08-30T00:59:37;5.53;;;2.25;;
41897;SDS011;27576;53.366;-1.498;2022-08-30T01:02:03;4.78;;;2.00;;
41897;SDS011;27576;53.366;-1.498;2022-08-30T01:04:29;2.42;;;2.13;;
41897;SDS011;27576;53.366;-1.498;2022-08-30T01:06:57;2.42;;;1.55;;
41897;SDS011;27576;53.366;-1.498;2022-08-30T01:09:24;3.13;;;2.20;;
41897;SDS011;27576;53.366;-1.498;2022-08-30T01:11:50;4.43;;;2.13;;
41897;SDS011;27576;53.366;-1.498;2022-08-30T01:14:16;2.60;;;1.80;;
41897;SDS011;27576;53.366;-1.498;2022-08-30T01:16:45;3.45;;;2.00;;
41897;SDS011;27576;53.366;-1.498;2022-08-30T01:19:58;6.25;;;2.60;;
41897;SDS011;27576;53.366;-1.498;2022-08-30T01:22:02;3.58;;;2.08;;
41897;SDS011;27576;53.366;-1.498;2022-08-30T01:24:38;4.78;;;2.20;;
41897;SDS011;27576;53.366;-1.498;2022-08-30T01:27:04;3.10;;;2.10;;
41897;SDS011;27576;53.366;-1.498;2022-08-30T01:29:30;3.38;;;1.70;;
41897;SDS011;27576;53.366;-1.498;2022-08-30T01:31:56;3.03;;;2.08;;
41897;SDS011;27576;53.366;-1.498;2022-08-30T01:34:21;3.95;;;2.10;;
41897;SDS011;27576;53.366;-1.498;2022-08-30T01:36:47;2.22;;;1.92;;
41897;SDS011;27576;53.366;-1.498;2022-08-30T01:39:14;2.63;;;2.10;;
41897;SDS011;27576;53.366;-1.498;2022-08-30T01:41:41;4.07;;;1.95;;
41897;SDS011;27576;53.366;-1.498;2022-08-30T01:44:09;2.88;;;2.20;;
41897;SDS011;27576;53.366;-1.498;2022-08-30T01:46:42;3.50;;;1.88;;
41897;SDS011;27576;53.366;-1.498;2022-08-30T01:49:11;2.78;;;2.08;;
41897;SDS011;27576;53.366;-1.498;2022-08-30T01:51:39;2.70;;;1.80;;
41897;SDS011;27576;53.366;-1.498;2022-08-30T01:54:05;2.92;;;1.98;;
41897;SDS011;27576;53.366;-1.498;2022-08-30T01:56:31;3.28;;;1.80;;
41897;SDS011;27576;53.366;-1.498;2022-08-30T01:58:58;2.40;;;2.13;;
41897;SDS011;27576;53.366;-1.498;2022-08-30T02:01:24;4.65;;;2.08;;
41897;SDS011;27576;53.366;-1.498;2022-08-30T02:03:52;2.95;;;1.70;;
41897;SDS011;27576;53.366;-1.498;2022-08-30T02:06:21;1.85;;;1.67;;
41897;SDS011;27576;53.366;-1.498;2022-08-30T02:08:48;2.15;;;1.90;;
41897;SDS011;27576;53.366;-1.498;2022-08-30T02:11:14;1.95;;;1.67;;
41897;SDS011;27576;53.366;-1.498;2022-08-30T02:13:40;1.70;;;1.60;;
41897;SDS011;27576;53.366;-1.498;2022-08-30T02:16:07;4.95;;;1.92;;
41897;SDS011;27576;53.366;-1.498;2022-08-30T02:18:35;2.17;;;1.98;;
41897;SDS011;27576;53.366;-1.498;2022-08-30T02:21:02;2.97;;;1.58;;
41897;SDS011;27576;53.366;-1.498;2022-08-30T02:23:28;2.47;;;1.70;;
41897;SDS011;27576;53.366;-1.498;2022-08-30T02:25:53;3.03;;;1.65;;
41897;SDS011;27576;53.366;-1.498;2022-08-30T02:28:19;2.05;;;1.40;;
41897;SDS011;27576;53.366;-1.498;2022-08-30T02:30:45;2.28;;;1.40;;
41897;SDS011;27576;53.366;-1.498;2022-08-30T02:33:12;1.98;;;1.55;;
41897;SDS011;27576;53.366;-1.498;2022-08-30T02:35:37;3.00;;;1.30;;
41897;SDS011;27576;53.366;-1.498;2022-08-30T02:38:03;2.65;;;1.67;;
41897;SDS011;27576;53.366;-1.498;2022-08-30T02:40:29;2.42;;;1.48;;
41897;SDS011;27576;53.366;-1.498;2022-08-30T02:42:55;7.15;;;1.73;;
41897;SDS011;27576;53.366;-1.498;2022-08-30T02:45:21;3.92;;;1.88;;
41897;SDS011;27576;53.366;-1.498;2022-08-30T02:47:47;2.40;;;1.70;;
41897;SDS011;27576;53.366;-1.498;2022-08-30T02:50:13;3.92;;;1.95;;
41897;SDS011;27576;53.366;-1.498;2022-08-30T02:52:39;1.73;;;1.50;;
41897;SDS011;27576;53.366;-1.498;2022-08-30T02:55:05;1.63;;;1.52;;
41897;SDS011;27576;53.366;-1.498;2022-08-30T02:57:31;1.80;;;1.70;;
41897;SDS011;27576;53.366;-1.498;2022-08-30T02:59:56;2.13;;;1.60;;
41897;SDS011;27576;53.366;-1.498;2022-08-30T03:02:22;3.00;;;1.60;;
41897;SDS011;27576;53.366;-1.498;2022-08-30T03:04:48;7.03;;;1.73;;
41897;SDS011;27576;53.366;-1.498;2022-08-30T03:07:14;2.45;;;1.50;;
41897;SDS011;27576;53.366;-1.498;2022-08-30T03:09:40;3.78;;;1.75;;
41897;SDS011;27576;53.366;-1.498;2022-08-30T03:12:05;2.55;;;1.83;;
41897;SDS011;27576;53.366;-1.498;2022-08-30T03:14:32;2.72;;;1.50;;
41897;SDS011;27576;53.366;-1.498;2022-08-30T03:17:00;2.67;;;1.80;;
41897;SDS011;27576;53.366;-1.498;2022-08-30T03:19:26;2.22;;;1.70;;
41897;SDS011;27576;53.366;-1.498;2022-08-30T03:21:52;2.47;;;2.28;;
41897;SDS011;27576;53.366;-1.498;2022-08-30T03:24:18;1.30;;;1.17;;
41897;SDS011;27576;53.366;-1.498;2022-08-30T03:26:44;3.88;;;1.60;;
41897;SDS011;27576;53.366;-1.498;2022-08-30T03:29:09;3.55;;;2.25;;
41897;SDS011;27576;53.366;-1.498;2022-08-30T03:31:35;1.70;;;1.60;;
41897;SDS011;27576;53.366;-1.498;2022-08-30T03:34:01;1.85;;;1.63;;
41897;SDS011;27576;53.366;-1.498;2022-08-30T03:36:27;1.60;;;1.48;;
41897;SDS011;27576;53.366;-1.498;2022-08-30T03:38:54;2.40;;;1.42;;
41897;SDS011;27576;53.366;-1.498;2022-08-30T03:41:19;1.90;;;1.70;;
41897;SDS011;27576;53.366;-1.498;2022-08-30T03:43:44;2.47;;;1.80;;
41897;SDS011;27576;53.366;-1.498;2022-08-30T03:46:13;2.03;;;1.58;;
41897;SDS011;27576;53.366;-1.498;2022-08-30T03:48:38;3.95;;;2.47;;
41897;SDS011;27576;53.366;-1.498;2022-08-30T03:51:04;1.83;;;1.30;;
41897;SDS011;27576;53.366;-1.498;2022-08-30T03:53:30;1.88;;;1.45;;
41897;SDS011;27576;53.366;-1.498;2022-08-30T03:55:55;1.73;;;1.55;;
41897;SDS011;27576;53.366;-1.498;2022-08-30T03:58:21;4.47;;;1.80;;
41897;SDS011;27576;53.366;-1.498;2022-08-30T04:00:46;3.80;;;1.67;;
41897;SDS011;27576;53.366;-1.498;2022-08-30T04:03:12;2.03;;;1.70;;
41897;SDS011;27576;53.366;-1.498;2022-08-30T04:05:38;3.50;;;1.60;;
41897;SDS011;27576;53.366;-1.498;2022-08-30T04:08:04;2.38;;;1.95;;
41897;SDS011;27576;53.366;-1.498;2022-08-30T04:10:30;2.13;;;1.60;;
41897;SDS011;27576;53.366;-1.498;2022-08-30T04:12:55;2.03;;;1.77;;
41897;SDS011;27576;53.366;-1.498;2022-08-30T04:15:21;2.13;;;1.50;;
41897;SDS011;27576;53.366;-1.498;2022-08-30T04:17:47;1.88;;;1.67;;
41897;SDS011;27576;53.366;-1.498;2022-08-30T04:20:13;1.70;;;1.60;;
41897;SDS011;27576;53.366;-1.498;2022-08-30T04:22:40;2.58;;;1.33;;
41897;SDS011;27576;53.366;-1.498;2022-08-30T04:25:06;2.00;;;1.90;;
41897;SDS011;27576;53.366;-1.498;2022-08-30T04:27:32;2.65;;;1.92;;
41897;SDS011;27576;53.366;-1.498;2022-08-30T04:29:58;2.30;;;2.03;;
41897;SDS011;27576;53.366;-1.498;2022-08-30T04:32:24;1.80;;;1.60;;
41897;SDS011;27576;53.366;-1.498;2022-08-30T04:34:49;3.92;;;1.60;;
41897;SDS011;27576;53.366;-1.498;2022-08-30T04:37:20;2.05;;;1.58;;
41897;SDS011;27576;53.366;-1.498;2022-08-30T04:39:46;1.73;;;1.58;;
41897;SDS011;27576;53.366;-1.498;2022-08-30T04:42:12;4.72;;;2.38;;
41897;SDS011;27576;53.366;-1.498;2022-08-30T04:44:39;3.47;;;1.80;;
41897;SDS011;27576;53.366;-1.498;2022-08-30T04:47:04;3.20;;;1.95;;
41897;SDS011;27576;53.366;-1.498;2022-08-30T04:49:29;2.92;;;1.90;;
41897;SDS011;27576;53.366;-1.498;2022-08-30T04:51:56;2.50;;;1.83;;
41897;SDS011;27576;53.366;-1.498;2022-08-30T04:54:22;2.92;;;1.88;;
41897;SDS011;27576;53.366;-1.498;2022-08-30T04:56:47;1.80;;;1.52;;
41897;SDS011;27576;53.366;-1.498;2022-08-30T04:59:13;3.38;;;1.70;;
41897;SDS011;27576;53.366;-1.498;2022-08-30T05:01:38;2.08;;;1.80;;
41897;SDS011;27576;53.366;-1.498;2022-08-30T05:04:04;2.97;;;1.73;;
41897;SDS011;27576;53.366;-1.498;2022-08-30T05:06:31;2.80;;;1.80;;
41897;SDS011;27576;53.366;-1.498;2022-08-30T05:08:56;7.03;;;1.98;;
41897;SDS011;27576;53.366;-1.498;2022-08-30T05:11:23;3.58;;;1.80;;
41897;SDS011;27576;53.366;-1.498;2022-08-30T05:13:48;4.70;;;1.70;;
41897;SDS011;27576;53.366;-1.498;2022-08-30T05:16:14;4.60;;;2.88;;
41897;SDS011;27576;53.366;-1.498;2022-08-30T05:18:45;4.50;;;2.00;;
41897;SDS011;27576;53.366;-1.498;2022-08-30T05:21:13;3.67;;;2.05;;
41897;SDS011;27576;53.366;-1.498;2022-08-30T05:23:43;4.93;;;1.77;;
41897;SDS011;27576;53.366;-1.498;2022-08-30T05:26:13;5.07;;;1.85;;
41897;SDS011;27576;53.366;-1.498;2022-08-30T05:28:41;1.70;;;1.40;;
41897;SDS011;27576;53.366;-1.498;2022-08-30T05:31:17;2.38;;;1.95;;
41897;SDS011;27576;53.366;-1.498;2022-08-30T05:33:48;1.63;;;1.40;;
41897;SDS011;27576;53.366;-1.498;2022-08-30T05:36:16;2.78;;;1.50;;
41897;SDS011;27576;53.366;-1.498;2022-08-30T05:38:43;2.58;;;1.55;;
41897;SDS011;27576;53.366;-1.498;2022-08-30T05:41:10;2.78;;;1.50;;
41897;SDS011;27576;53.366;-1.498;2022-08-30T05:43:36;5.07;;;1.85;;
41897;SDS011;27576;53.366;-1.498;2022-08-30T05:46:02;2.55;;;1.50;;
41897;SDS011;27576;53.366;-1.498;2022-08-30T05:48:30;4.20;;;1.50;;
41897;SDS011;27576;53.366;-1.498;2022-08-30T05:51:18;1.77;;;1.50;;
41897;SDS011;27576;53.366;-1.498;2022-08-30T05:53:44;2.17;;;1.70;;
41897;SDS011;27576;53.366;-1.498;2022-08-30T05:56:11;3.28;;;1.63;;
41897;SDS011;27576;53.366;-1.498;2022-08-30T05:58:38;2.95;;;1.80;;
41897;SDS011;27576;53.366;-1.498;2022-08-30T06:01:04;3.03;;;1.98;;
41897;SDS011;27576;53.366;-1.498;2022-08-30T06:03:30;4.18;;;1.75;;
41897;SDS011;27576;53.366;-1.498;2022-08-30T06:05:57;3.65;;;1.67;;
41897;SDS011;27576;53.366;-1.498;2022-08-30T06:08:23;4.40;;;1.63;;
41897;SDS011;27576;53.366;-1.498;2022-08-30T06:10:48;2.05;;;1.38;;
41897;SDS011;27576;53.366;-1.498;2022-08-30T06:13:14;2.50;;;1.60;;
41897;SDS011;27576;53.366;-1.498;2022-08-30T06:15:40;2.38;;;1.80;;
41897;SDS011;27576;53.366;-1.498;2022-08-30T06:18:09;3.33;;;1.80;;
41897;SDS011;27576;53.366;-1.498;2022-08-30T06:20:39;2.83;;;1.80;;
41897;SDS011;27576;53.366;-1.498;2022-08-30T06:23:08;1.48;;;1.38;;
41897;SDS011;27576;53.366;-1.498;2022-08-30T06:25:35;1.75;;;1.40;;
41897;SDS011;27576;53.366;-1.498;2022-08-30T06:28:02;2.55;;;1.52;;
41897;SDS011;27576;53.366;-1.498;2022-08-30T06:30:29;2.45;;;1.75;;
41897;SDS011;27576;53.366;-1.498;2022-08-30T06:32:54;2.92;;;1.60;;
41897;SDS011;27576;53.366;-1.498;2022-08-30T06:35:20;2.58;;;1.70;;
41897;SDS011;27576;53.366;-1.498;2022-08-30T06:37:45;1.52;;;1.42;;
41897;SDS011;27576;53.366;-1.498;2022-08-30T06:40:11;4.18;;;1.77;;
41897;SDS011;27576;53.366;-1.498;2022-08-30T06:42:38;1.33;;;1.23;;
41897;SDS011;27576;53.366;-1.498;2022-08-30T06:45:03;2.60;;;1.60;;
41897;SDS011;27576;53.366;-1.498;2022-08-30T06:47:29;1.52;;;1.27;;
41897;SDS011;27576;53.366;-1.498;2022-08-30T06:49:55;2.85;;;1.63;;
41897;SDS011;27576;53.366;-1.498;2022-08-30T06:52:21;1.52;;;1.42;;
41897;SDS011;27576;53.366;-1.498;2022-08-30T06:54:47;1.88;;;1.45;;
41897;SDS011;27576;53.366;-1.498;2022-08-30T06:57:12;2.80;;;1.52;;
41897;SDS011;27576;53.366;-1.498;2022-08-30T06:59:38;5.22;;;1.90;;
41897;SDS011;27576;53.366;-1.498;2022-08-30T07:02:04;3.38;;;1.55;;
41897;SDS011;27576;53.366;-1.498;2022-08-30T07:04:30;1.25;;;1.15;;
41897;SDS011;27576;53.366;-1.498;2022-08-30T07:06:55;3.17;;;1.65;;
41897;SDS011;27576;53.366;-1.498;2022-08-30T07:09:21;2.05;;;1.42;;
41897;SDS011;27576;53.366;-1.498;2022-08-30T07:11:46;2.83;;;1.60;;
41897;SDS011;27576;53.366;-1.498;2022-08-30T07:14:12;2.40;;;1.50;;
41897;SDS011;27576;53.366;-1.498;2022-08-30T07:16:37;5.68;;;1.77;;
41897;SDS011;27576;53.366;-1.498;2022-08-30T07:19:04;2.80;;;1.40;;
41897;SDS011;27576;53.366;-1.498;2022-08-30T07:21:37;1.35;;;1.25;;
41897;SDS011;27576;53.366;-1.498;2022-08-30T07:24:05;3.05;;;1.65;;
41897;SDS011;27576;53.366;-1.498;2022-08-30T07:26:32;3.80;;;1.60;;
41897;SDS011;27576;53.366;-1.498;2022-08-30T07:29:02;2.25;;;1.58;;
41897;SDS011;27576;53.366;-1.498;2022-08-30T07:31:29;1.30;;;1.20;;
41897;SDS011;27576;53.366;-1.498;2022-08-30T07:33:54;3.67;;;1.52;;
41897;SDS011;27576;53.366;-1.498;2022-08-30T07:36:21;5.45;;;1.67;;
41897;SDS011;27576;53.366;-1.498;2022-08-30T07:38:47;2.00;;;1.40;;
41897;SDS011;27576;53.366;-1.498;2022-08-30T07:41:24;1.83;;;1.52;;
41897;SDS011;27576;53.366;-1.498;2022-08-30T07:43:52;3.60;;;1.85;;
41897;SDS011;27576;53.366;-1.498;2022-08-30T07:46:18;2.72;;;1.70;;
41897;SDS011;27576;53.366;-1.498;2022-08-30T07:48:44;2.05;;;1.45;;
41897;SDS011;27576;53.366;-1.498;2022-08-30T07:51:11;4.47;;;1.58;;
41897;SDS011;27576;53.366;-1.498;2022-08-30T07:53:38;5.25;;;2.00;;
41897;SDS011;27576;53.366;-1.498;2022-08-30T07:56:04;1.45;;;1.35;;
41897;SDS011;27576;53.366;-1.498;2022-08-30T07:58:30;2.20;;;1.40;;
41897;SDS011;27576;53.366;-1.498;2022-08-30T08:00:56;7.50;;;1.90;;
41897;SDS011;27576;53.366;-1.498;2022-08-30T08:03:24;1.70;;;1.40;;
41897;SDS011;27576;53.366;-1.498;2022-08-30T08:05:50;4.25;;;1.63;;
41897;SDS011;27576;53.366;-1.498;2022-08-30T08:08:17;5.93;;;1.67;;
41897;SDS011;27576;53.366;-1.498;2022-08-30T08:10:45;1.70;;;1.27;;
41897;SDS011;27576;53.366;-1.498;2022-08-30T08:13:10;2.05;;;1.23;;
41897;SDS011;27576;53.366;-1.498;2022-08-30T08:15:36;3.05;;;1.48;;
41897;SDS011;27576;53.366;-1.498;2022-08-30T08:18:01;3.65;;;1.50;;
41897;SDS011;27576;53.366;-1.498;2022-08-30T08:20:27;2.08;;;1.50;;
41897;SDS011;27576;53.366;-1.498;2022-08-30T08:22:52;3.00;;;1.50;;
41897;SDS011;27576;53.366;-1.498;2022-08-30T08:25:18;1.40;;;1.30;;
41897;SDS011;27576;53.366;-1.498;2022-08-30T08:27:45;2.05;;;1.40;;
41897;SDS011;27576;53.366;-1.498;2022-08-30T08:30:12;4.05;;;1.50;;
41897;SDS011;27576;53.366;-1.498;2022-08-30T08:32:38;2.10;;;1.50;;
41897;SDS011;27576;53.366;-1.498;2022-08-30T08:35:04;4.57;;;1.60;;
41897;SDS011;27576;53.366;-1.498;2022-08-30T08:37:30;3.90;;;1.55;;
41897;SDS011;27576;53.366;-1.498;2022-08-30T08:39:55;2.90;;;1.88;;
41897;SDS011;27576;53.366;-1.498;2022-08-30T08:42:30;2.13;;;1.40;;
41897;SDS011;27576;53.366;-1.498;2022-08-30T08:45:00;3.53;;;1.75;;
41897;SDS011;27576;53.366;-1.498;2022-08-30T08:50:07;2.88;;;1.63;;
41897;SDS011;27576;53.366;-1.498;2022-08-30T08:55:33;2.83;;;1.65;;
41897;SDS011;27576;53.366;-1.498;2022-08-30T08:58:02;2.97;;;1.63;;
41897;SDS011;27576;53.366;-1.498;2022-08-30T09:00:27;3.90;;;1.55;;
41897;SDS011;27576;53.366;-1.498;2022-08-30T09:02:58;2.25;;;1.52;;
41897;SDS011;27576;53.366;-1.498;2022-08-30T09:05:26;1.65;;;1.10;;
41897;SDS011;27576;53.366;-1.498;2022-08-30T09:08:00;3.85;;;1.40;;
41897;SDS011;27576;53.366;-1.498;2022-08-30T09:10:28;6.32;;;1.55;;
41897;SDS011;27576;53.366;-1.498;2022-08-30T09:12:56;2.10;;;1.40;;
41897;SDS011;27576;53.366;-1.498;2022-08-30T09:15:23;6.55;;;1.40;;
41897;SDS011;27576;53.366;-1.498;2022-08-30T09:17:52;1.60;;;1.33;;
41897;SDS011;27576;53.366;-1.498;2022-08-30T09:22:57;3.13;;;1.33;;
41897;SDS011;27576;53.366;-1.498;2022-08-30T09:27:53;1.42;;;1.00;;
41897;SDS011;27576;53.366;-1.498;2022-08-30T09:30:32;3.50;;;1.20;;
41897;SDS011;27576;53.366;-1.498;2022-08-30T09:33:01;1.23;;;1.02;;
41897;SDS011;27576;53.366;-1.498;2022-08-30T09:38:03;1.23;;;1.10;;
41897;SDS011;27576;53.366;-1.498;2022-08-30T09:43:20;1.30;;;1.13;;
41897;SDS011;27576;53.366;-1.498;2022-08-30T09:48:27;3.53;;;1.42;;
41897;SDS011;27576;53.366;-1.498;2022-08-30T09:51:20;2.20;;;1.35;;
41897;SDS011;27576;53.366;-1.498;2022-08-30T10:08:09;5.10;;;1.05;;
41897;SDS011;27576;53.366;-1.498;2022-08-30T10:16:07;1.65;;;1.23;;
41897;SDS011;27576;53.366;-1.498;2022-08-30T10:21:57;2.97;;;1.55;;
41897;SDS011;27576;53.366;-1.498;2022-08-30T10:24:25;3.63;;;1.25;;
41897;SDS011;27576;53.366;-1.498;2022-08-30T10:29:33;2.40;;;1.40;;
41897;SDS011;27576;53.366;-1.498;2022-08-30T10:32:11;4.07;;;1.30;;
41897;SDS011;27576;53.366;-1.498;2022-08-30T10:35:05;1.55;;;1.23;;
41897;SDS011;27576;53.366;-1.498;2022-08-30T10:37:36;2.72;;;1.20;;
41897;SDS011;27576;53.366;-1.498;2022-08-30T10:40:10;2.90;;;1.45;;
41897;SDS011;27576;53.366;-1.498;2022-08-30T10:43:02;2.08;;;1.33;;
41897;SDS011;27576;53.366;-1.498;2022-08-30T10:45:34;2.72;;;1.20;;
41897;SDS011;27576;53.366;-1.498;2022-08-30T10:50:48;2.88;;;1.20;;
41897;SDS011;27576;53.366;-1.498;2022-08-30T10:53:18;1.95;;;1.15;;
41897;SDS011;27576;53.366;-1.498;2022-08-30T10:56:10;3.63;;;1.05;;
41897;SDS011;27576;53.366;-1.498;2022-08-30T10:58:40;2.15;;;1.40;;
41897;SDS011;27576;53.366;-1.498;2022-08-30T11:14:22;1.75;;;1.17;;
41897;SDS011;27576;53.366;-1.498;2022-08-30T11:16:50;1.83;;;1.40;;
41897;SDS011;27576;53.366;-1.498;2022-08-30T11:21:43;2.03;;;1.20;;
41897;SDS011;27576;53.366;-1.498;2022-08-30T11:24:17;3.72;;;1.73;;
41897;SDS011;27576;53.366;-1.498;2022-08-30T11:31:58;2.13;;;0.95;;
41897;SDS011;27576;53.366;-1.498;2022-08-30T11:37:08;2.65;;;1.30;;
41897;SDS011;27576;53.366;-1.498;2022-08-30T11:42:35;2.17;;;1.10;;
41897;SDS011;27576;53.366;-1.498;2022-08-30T11:53:13;2.58;;;1.27;;
41897;SDS011;27576;53.366;-1.498;2022-08-30T12:03:55;1.40;;;1.30;;
41897;SDS011;27576;53.366;-1.498;2022-08-30T12:07:01;1.98;;;1.40;;
41897;SDS011;27576;53.366;-1.498;2022-08-30T12:17:09;2.03;;;1.45;;
41897;SDS011;27576;53.366;-1.498;2022-08-30T12:20:10;4.97;;;1.23;;
41897;SDS011;27576;53.366;-1.498;2022-08-30T12:22:41;1.15;;;1.00;;
41897;SDS011;27576;53.366;-1.498;2022-08-30T12:25:14;2.13;;;1.50;;
41897;SDS011;27576;53.366;-1.498;2022-08-30T12:27:44;3.38;;;1.80;;
41897;SDS011;27576;53.366;-1.498;2022-08-30T12:30:09;3.60;;;1.63;;
41897;SDS011;27576;53.366;-1.498;2022-08-30T12:32:42;1.30;;;1.20;;
41897;SDS011;27576;53.366;-1.498;2022-08-30T12:35:19;2.85;;;1.33;;
41897;SDS011;27576;53.366;-1.498;2022-08-30T12:37:54;2.00;;;1.50;;
41897;SDS011;27576;53.366;-1.498;2022-08-30T12:40:30;2.30;;;1.50;;
41897;SDS011;27576;53.366;-1.498;2022-08-30T12:43:05;2.85;;;1.33;;
41897;SDS011;27576;53.366;-1.498;2022-08-30T12:45:42;12.82;;;2.13;;
41897;SDS011;27576;53.366;-1.498;2022-08-30T12:48:12;3.10;;;1.35;;
41897;SDS011;27576;53.366;-1.498;2022-08-30T12:53:28;5.20;;;1.23;;
41897;SDS011;27576;53.366;-1.498;2022-08-30T12:58:59;1.83;;;1.40;;
41897;SDS011;27576;53.366;-1.498;2022-08-30T13:01:26;1.17;;;1.08;;
41897;SDS011;27576;53.366;-1.498;2022-08-30T13:06:34;2.42;;;0.95;;
41897;SDS011;27576;53.366;-1.498;2022-08-30T13:09:02;2.53;;;1.33;;
41897;SDS011;27576;53.366;-1.498;2022-08-30T13:11:28;2.65;;;1.50;;
41897;SDS011;27576;53.366;-1.498;2022-08-30T13:13:55;1.83;;;1.02;;
41897;SDS011;27576;53.366;-1.498;2022-08-30T13:16:40;3.47;;;1.33;;
41897;SDS011;27576;53.366;-1.498;2022-08-30T13:21:54;3.08;;;1.23;;
41897;SDS011;27576;53.366;-1.498;2022-08-30T13:24:22;2.17;;;1.05;;
41897;SDS011;27576;53.366;-1.498;2022-08-30T13:26:47;1.35;;;1.13;;
41897;SDS011;27576;53.366;-1.498;2022-08-30T13:29:14;2.00;;;1.20;;
41897;SDS011;27576;53.366;-1.498;2022-08-30T13:31:45;1.92;;;1.15;;
41897;SDS011;27576;53.366;-1.498;2022-08-30T13:34:10;2.90;;;1.42;;
41897;SDS011;27576;53.366;-1.498;2022-08-30T13:36:37;3.00;;;1.38;;
41897;SDS011;27576;53.366;-1.498;2022-08-30T13:39:08;3.38;;;1.17;;
41897;SDS011;27576;53.366;-1.498;2022-08-30T13:41:34;1.48;;;1.23;;
41897;SDS011;27576;53.366;-1.498;2022-08-30T13:44:00;1.58;;;1.30;;
41897;SDS011;27576;53.366;-1.498;2022-08-30T13:46:25;1.83;;;1.42;;
41897;SDS011;27576;53.366;-1.498;2022-08-30T13:48:53;2.63;;;1.30;;
41897;SDS011;27576;53.366;-1.498;2022-08-30T13:51:24;2.13;;;1.10;;
41897;SDS011;27576;53.366;-1.498;2022-08-30T13:53:50;2.13;;;1.30;;
41897;SDS011;27576;53.366;-1.498;2022-08-30T13:56:15;2.33;;;1.20;;
41897;SDS011;27576;53.366;-1.498;2022-08-30T13:58:41;3.45;;;1.38;;
41897;SDS011;27576;53.366;-1.498;2022-08-30T14:01:06;2.17;;;1.10;;
41897;SDS011;27576;53.366;-1.498;2022-08-30T14:03:32;2.08;;;1.10;;
41897;SDS011;27576;53.366;-1.498;2022-08-30T14:05:57;2.42;;;1.27;;
41897;SDS011;27576;53.366;-1.498;2022-08-30T14:08:27;2.33;;;1.40;;
41897;SDS011;27576;53.366;-1.498;2022-08-30T14:10:55;3.00;;;1.55;;
41897;SDS011;27576;53.366;-1.498;2022-08-30T14:13:21;4.07;;;1.40;;
41897;SDS011;27576;53.366;-1.498;2022-08-30T14:15:47;2.70;;;1.10;;
41897;SDS011;27576;53.366;-1.498;2022-08-30T14:18:14;3.33;;;1.58;;
41897;SDS011;27576;53.366;-1.498;2022-08-30T14:20:39;3.35;;;1.40;;
41897;SDS011;27576;53.366;-1.498;2022-08-30T14:23:05;5.22;;;1.40;;
41897;SDS011;27576;53.366;-1.498;2022-08-30T14:25:31;1.88;;;1.08;;
41897;SDS011;27576;53.366;-1.498;2022-08-30T14:27:56;1.67;;;1.23;;
41897;SDS011;27576;53.366;-1.498;2022-08-30T14:30:22;1.80;;;1.17;;
41897;SDS011;27576;53.366;-1.498;2022-08-30T14:32:49;3.08;;;1.52;;
41897;SDS011;27576;53.366;-1.498;2022-08-30T14:35:14;5.32;;;1.30;;
41897;SDS011;27576;53.366;-1.498;2022-08-30T14:37:42;3.90;;;1.65;;
41897;SDS011;27576;53.366;-1.498;2022-08-30T14:40:08;6.00;;;1.50;;
41897;SDS011;27576;53.366;-1.498;2022-08-30T14:42:34;2.70;;;1.20;;
41897;SDS011;27576;53.366;-1.498;2022-08-30T14:45:00;8.13;;;1.52;;
41897;SDS011;27576;53.366;-1.498;2022-08-30T14:47:25;4.50;;;1.60;;
41897;SDS011;27576;53.366;-1.498;2022-08-30T14:49:50;2.55;;;1.65;;
41897;SDS011;27576;53.366;-1.498;2022-08-30T14:52:17;2.47;;;1.27;;
41897;SDS011;27576;53.366;-1.498;2022-08-30T14:54:43;1.58;;;1.20;;
41897;SDS011;27576;53.366;-1.498;2022-08-30T14:57:08;3.15;;;1.40;;
41897;SDS011;27576;53.366;-1.498;2022-08-30T14:59:33;1.42;;;1.10;;
41897;SDS011;27576;53.366;-1.498;2022-08-30T15:01:59;2.65;;;1.67;;
41897;SDS011;27576;53.366;-1.498;2022-08-30T15:04:24;3.90;;;1.40;;
41897;SDS011;27576;53.366;-1.498;2022-08-30T15:06:50;1.77;;;1.20;;
41897;SDS011;27576;53.366;-1.498;2022-08-30T15:09:17;5.60;;;2.05;;
41897;SDS011;27576;53.366;-1.498;2022-08-30T15:11:46;4.00;;;1.65;;
41897;SDS011;27576;53.366;-1.498;2022-08-30T15:14:12;3.80;;;1.38;;
41897;SDS011;27576;53.366;-1.498;2022-08-30T15:16:37;6.95;;;1.23;;
41897;SDS011;27576;53.366;-1.498;2022-08-30T15:19:04;3.67;;;1.60;;
41897;SDS011;27576;53.366;-1.498;2022-08-30T15:21:32;6.75;;;1.30;;
41897;SDS011;27576;53.366;-1.498;2022-08-30T15:24:04;1.85;;;1.08;;
41897;SDS011;27576;53.366;-1.498;2022-08-30T15:26:31;2.00;;;1.20;;
41897;SDS011;27576;53.366;-1.498;2022-08-30T15:28:57;4.55;;;1.25;;
41897;SDS011;27576;53.366;-1.498;2022-08-30T15:31:25;1.67;;;1.10;;
41897;SDS011;27576;53.366;-1.498;2022-08-30T15:33:52;3.83;;;1.30;;
41897;SDS011;27576;53.366;-1.498;2022-08-30T15:36:18;3.25;;;1.33;;
41897;SDS011;27576;53.366;-1.498;2022-08-30T15:38:44;2.72;;;1.48;;
41897;SDS011;27576;53.366;-1.498;2022-08-30T15:41:10;3.25;;;1.60;;
41897;SDS011;27576;53.366;-1.498;2022-08-30T15:43:36;3.85;;;1.40;;
41897;SDS011;27576;53.366;-1.498;2022-08-30T15:46:47;2.83;;;1.45;;
41897;SDS011;27576;53.366;-1.498;2022-08-30T15:49:03;3.50;;;1.30;;
41897;SDS011;27576;53.366;-1.498;2022-08-30T15:51:34;3.92;;;1.33;;
41897;SDS011;27576;53.366;-1.498;2022-08-30T15:54:00;2.88;;;1.20;;
41897;SDS011;27576;53.366;-1.498;2022-08-30T15:56:27;1.88;;;1.20;;
41897;SDS011;27576;53.366;-1.498;2022-08-30T15:58:53;2.20;;;1.42;;
41897;SDS011;27576;53.366;-1.498;2022-08-30T16:01:19;1.73;;;1.30;;
41897;SDS011;27576;53.366;-1.498;2022-08-30T16:03:44;5.53;;;1.50;;
41897;SDS011;27576;53.366;-1.498;2022-08-30T16:06:14;2.10;;;1.27;;
41897;SDS011;27576;53.366;-1.498;2022-08-30T16:08:41;3.45;;;1.23;;
41897;SDS011;27576;53.366;-1.498;2022-08-30T16:11:07;2.13;;;1.30;;
41897;SDS011;27576;53.366;-1.498;2022-08-30T16:13:34;2.70;;;1.25;;
41897;SDS011;27576;53.366;-1.498;2022-08-30T16:16:03;2.97;;;1.88;;
41897;SDS011;27576;53.366;-1.498;2022-08-30T16:18:30;5.35;;;1.48;;
41897;SDS011;27576;53.366;-1.498;2022-08-30T16:21:07;1.42;;;1.20;;
41897;SDS011;27576;53.366;-1.498;2022-08-30T16:23:35;2.03;;;1.30;;
41897;SDS011;27576;53.366;-1.498;2022-08-30T16:26:03;3.65;;;1.48;;